createdAt,value
2022-11-17T00:01:15.217Z,9.6
2022-11-17T00:11:16.984Z,9.8
2022-11-17T00:21:19.446Z,10
2022-11-17T00:41:24.367Z,9.8
2022-11-17T00:51:26.780Z,10
2022-11-17T01:01:28.846Z,10.1
2022-11-17T01:11:31.267Z,10
2022-11-17T01:21:33.432Z,10.1
2022-11-17T01:31:35.186Z,10.2
2022-11-17T01:41:37.224Z,10.2
2022-11-17T01:51:39.857Z,10
2022-11-17T02:01:42.108Z,10
2022-11-17T02:11:44.141Z,9.9
2022-11-17T02:21:46.254Z,9.7
2022-11-17T02:31:47.976Z,9.6
2022-11-17T02:51:52.732Z,9.6
2022-11-17T03:01:54.659Z,9.6
2022-11-17T03:11:56.867Z,9.5
2022-11-17T03:21:58.860Z,9.5
2022-11-17T03:32:00.649Z,9.5
2022-11-17T03:42:02.769Z,9.4
2022-11-17T03:52:04.871Z,9.4
2022-11-17T04:02:07.234Z,9.4
2022-11-17T04:12:09.076Z,9.4
2022-11-17T04:22:11.628Z,9.4
2022-11-17T04:32:13.783Z,9.5
2022-11-17T04:42:15.580Z,9.5
2022-11-17T04:52:17.442Z,9.6
2022-11-17T05:02:19.498Z,9.7
2022-11-17T05:12:21.897Z,9.8
2022-11-17T05:32:25.580Z,9.8
2022-11-17T05:42:27.482Z,9.7
2022-11-17T05:52:30.143Z,9.7
2022-11-17T06:02:32.375Z,9.7
2022-11-17T06:12:34.689Z,9.8
2022-11-17T06:22:37.150Z,9.8
2022-11-17T06:32:39.181Z,9.6
2022-11-17T06:42:41.493Z,9.5
2022-11-17T06:52:43.575Z,9.5
2022-11-17T07:02:46.216Z,9.5
2022-11-17T07:12:48.667Z,9.6
2022-11-17T07:22:50.962Z,9.7
2022-11-17T07:32:54.758Z,9.8
2022-11-17T07:42:55.255Z,9.8
2022-11-17T07:52:57.371Z,9.9
2022-11-17T08:02:59.982Z,10
2022-11-17T08:13:02.262Z,10
2022-11-17T08:23:03.964Z,10.1
2022-11-17T08:33:06.483Z,10.1
2022-11-17T08:43:08.644Z,10.1
2022-11-17T08:53:10.337Z,10.2
2022-11-17T09:03:12.985Z,10
2022-11-17T09:15:53.743Z,9.9
2022-11-17T09:23:27.969Z,9.9
2022-11-17T09:33:30.531Z,10
2022-11-17T09:43:32.245Z,10.1
2022-11-17T09:53:34.487Z,10.1
2022-11-17T10:03:40.210Z,10.4
2022-11-17T10:13:38.394Z,10.4
2022-11-17T10:23:45.995Z,10.4
2022-11-17T10:33:42.181Z,10.7
2022-11-17T10:43:44.573Z,10.7
2022-11-17T10:53:47.208Z,11
2022-11-17T11:03:49.199Z,11.2
2022-11-17T11:13:51.375Z,11.3
2022-11-17T11:23:53.985Z,11.6
2022-11-17T11:33:55.854Z,11.9
2022-11-17T11:43:58.370Z,11.8
2022-11-17T11:54:00.432Z,11.9
2022-11-17T12:14:04.833Z,11.8
2022-11-17T12:24:07.503Z,11.8
2022-11-17T12:34:09.933Z,11.7
2022-11-17T12:44:12.056Z,11.7
2022-11-17T13:04:16.898Z,11.5
2022-11-17T13:14:18.950Z,11.5
2022-11-17T13:24:21.236Z,11.5
2022-11-17T13:34:23.439Z,11.4
2022-11-17T13:44:25.530Z,11.3
2022-11-17T13:54:28.043Z,11.2
2022-11-17T14:04:30.014Z,11.3
2022-11-17T14:14:32.620Z,11.2
2022-11-17T14:34:37.209Z,11
2022-11-17T14:44:39.805Z,10.9
2022-11-17T14:54:41.517Z,10.9
2022-11-17T15:14:46.807Z,10.9
2022-11-17T15:24:49.250Z,10.8
2022-11-17T15:34:50.922Z,10.7
2022-11-17T15:54:55.773Z,10.6
2022-11-17T16:14:59.724Z,10.7
2022-11-17T16:35:03.563Z,10.8
2022-11-17T16:45:05.414Z,10.7
2022-11-17T16:55:08.028Z,10.7
2022-11-17T17:05:09.758Z,10.5
2022-11-17T17:15:11.928Z,10.3
2022-11-17T18:05:23.396Z,9.8
2022-11-17T18:15:26.073Z,9.8
2022-11-17T18:25:28.713Z,9.4
2022-11-17T18:35:31.089Z,9.4
2022-11-17T18:45:33.723Z,9.3
2022-11-17T18:55:35.604Z,9.2
2022-11-17T19:05:37.683Z,9.4
2022-11-17T19:15:40.240Z,9.5
2022-11-17T19:25:42.439Z,9.5
2022-11-17T19:35:44.526Z,9.5
2022-11-17T19:45:46.892Z,9.6
2022-11-17T19:55:48.685Z,9.9
2022-11-17T20:05:51.134Z,9.7
2022-11-17T20:15:53.008Z,9.8
2022-11-17T20:25:54.921Z,9.4
2022-11-17T20:45:59.915Z,9.4
2022-11-17T20:56:01.964Z,9.4
2022-11-17T21:06:03.846Z,9.4
2022-11-17T21:16:06.339Z,9.2
2022-11-17T21:26:08.007Z,9.2
2022-11-17T21:36:10.105Z,9.1
2022-11-17T21:46:12.616Z,9
2022-11-17T21:56:14.999Z,8.8
2022-11-17T22:06:16.993Z,8.7
2022-11-17T22:16:18.886Z,8.6
2022-11-17T22:26:21.069Z,8.5
2022-11-17T22:36:23.416Z,8.4
2022-11-17T22:46:25.859Z,8.4
2022-11-17T22:56:28.449Z,8.4
2022-11-17T23:06:30.976Z,8.4
2022-11-17T23:16:33.577Z,8.4
2022-11-17T23:26:36.074Z,8.2
2022-11-17T23:36:38.229Z,8.2
2022-11-17T23:46:40.728Z,8.4
2022-11-17T23:56:42.790Z,8.6
